sensor_id;sensor_type;location;lat;lon;timestamp;P1;durP1;ratioP1;P2;durP2;ratioP2
23336;SDS011;11840;45.414;12.372;2022-07-21T04:51:22;7.53;;;3.90;;
23336;SDS011;11840;45.414;12.372;2022-07-21T04:53:48;6.95;;;4.00;;
23336;SDS011;11840;45.414;12.372;2022-07-21T04:56:15;7.63;;;3.67;;
23336;SDS011;11840;45.414;12.372;2022-07-21T04:58:40;8.23;;;3.83;;
23336;SDS011;11840;45.414;12.372;2022-07-21T05:01:07;7.00;;;3.88;;
23336;SDS011;11840;45.414;12.372;2022-07-21T05:03:33;9.50;;;3.97;;
23336;SDS011;11840;45.414;12.372;2022-07-21T05:05:59;7.82;;;3.65;;
23336;SDS011;11840;45.414;12.372;2022-07-21T05:08:25;7.55;;;3.80;;
23336;SDS011;11840;45.414;12.372;2022-07-21T05:10:52;7.15;;;4.40;;
23336;SDS011;11840;45.414;12.372;2022-07-21T05:13:18;7.20;;;4.03;;
23336;SDS011;11840;45.414;12.372;2022-07-21T05:15:44;8.95;;;4.13;;
23336;SDS011;11840;45.414;12.372;2022-07-21T05:18:11;5.20;;;3.80;;
23336;SDS011;11840;45.414;12.372;2022-07-21T05:20:37;6.88;;;4.38;;
23336;SDS011;11840;45.414;12.372;2022-07-21T05:23:03;5.88;;;3.80;;
23336;SDS011;11840;45.414;12.372;2022-07-21T05:25:30;7.95;;;4.22;;
23336;SDS011;11840;45.414;12.372;2022-07-21T05:27:57;7.80;;;4.05;;
23336;SDS011;11840;45.414;12.372;2022-07-21T05:30:23;8.50;;;4.35;;
23336;SDS011;11840;45.414;12.372;2022-07-21T05:32:50;7.90;;;4.00;;
23336;SDS011;11840;45.414;12.372;2022-07-21T05:35:15;5.63;;;3.58;;
23336;SDS011;11840;45.414;12.372;2022-07-21T05:37:41;5.35;;;3.70;;
23336;SDS011;11840;45.414;12.372;2022-07-21T05:40:08;5.63;;;3.15;;
23336;SDS011;11840;45.414;12.372;2022-07-21T05:42:35;5.53;;;3.72;;
23336;SDS011;11840;45.414;12.372;2022-07-21T05:45:00;7.82;;;3.92;;
23336;SDS011;11840;45.414;12.372;2022-07-21T05:47:26;8.95;;;4.18;;
23336;SDS011;11840;45.414;12.372;2022-07-21T05:49:52;6.55;;;3.90;;
23336;SDS011;11840;45.414;12.372;2022-07-21T05:52:19;5.90;;;3.85;;
23336;SDS011;11840;45.414;12.372;2022-07-21T05:54:45;10.32;;;4.20;;
23336;SDS011;11840;45.414;12.372;2022-07-21T05:57:11;6.80;;;4.32;;
23336;SDS011;11840;45.414;12.372;2022-07-21T05:59:37;8.57;;;4.35;;
23336;SDS011;11840;45.414;12.372;2022-07-21T06:02:03;8.80;;;4.50;;
23336;SDS011;11840;45.414;12.372;2022-07-21T06:04:29;8.10;;;4.00;;
23336;SDS011;11840;45.414;12.372;2022-07-21T06:06:56;8.07;;;4.57;;
23336;SDS011;11840;45.414;12.372;2022-07-21T06:09:22;5.63;;;4.18;;
23336;SDS011;11840;45.414;12.372;2022-07-21T06:11:48;9.38;;;4.60;;
23336;SDS011;11840;45.414;12.372;2022-07-21T06:14:14;8.52;;;4.43;;
23336;SDS011;11840;45.414;12.372;2022-07-21T06:16:41;8.15;;;4.40;;
23336;SDS011;11840;45.414;12.372;2022-07-21T06:19:06;4.80;;;3.60;;
23336;SDS011;11840;45.414;12.372;2022-07-21T06:21:32;8.18;;;4.10;;
23336;SDS011;11840;45.414;12.372;2022-07-21T06:23:58;8.35;;;4.65;;
23336;SDS011;11840;45.414;12.372;2022-07-21T06:26:25;7.47;;;4.22;;
23336;SDS011;11840;45.414;12.372;2022-07-21T06:28:50;5.55;;;4.50;;
23336;SDS011;11840;45.414;12.372;2022-07-21T06:31:17;6.55;;;4.32;;
23336;SDS011;11840;45.414;12.372;2022-07-21T06:33:43;7.60;;;4.90;;
23336;SDS011;11840;45.414;12.372;2022-07-21T06:36:09;6.82;;;4.13;;
23336;SDS011;11840;45.414;12.372;2022-07-21T06:38:35;8.15;;;4.80;;
23336;SDS011;11840;45.414;12.372;2022-07-21T06:41:02;9.45;;;5.28;;
23336;SDS011;11840;45.414;12.372;2022-07-21T06:43:28;13.52;;;6.43;;
23336;SDS011;11840;45.414;12.372;2022-07-21T06:45:54;9.27;;;7.10;;
23336;SDS011;11840;45.414;12.372;2022-07-21T06:48:21;9.30;;;7.13;;
23336;SDS011;11840;45.414;12.372;2022-07-21T06:50:50;14.70;;;7.15;;
23336;SDS011;11840;45.414;12.372;2022-07-21T06:53:16;11.35;;;6.88;;
23336;SDS011;11840;45.414;12.372;2022-07-21T06:55:42;7.53;;;6.57;;
23336;SDS011;11840;45.414;12.372;2022-07-21T06:58:09;11.18;;;6.85;;
23336;SDS011;11840;45.414;12.372;2022-07-21T07:00:35;12.75;;;7.75;;
23336;SDS011;11840;45.414;12.372;2022-07-21T07:03:01;9.10;;;6.70;;
23336;SDS011;11840;45.414;12.372;2022-07-21T07:05:27;10.07;;;8.02;;
23336;SDS011;11840;45.414;12.372;2022-07-21T07:07:55;12.18;;;7.70;;
23336;SDS011;11840;45.414;12.372;2022-07-21T07:10:21;11.73;;;9.48;;
23336;SDS011;11840;45.414;12.372;2022-07-21T07:12:47;11.43;;;8.85;;
23336;SDS011;11840;45.414;12.372;2022-07-21T07:15:13;11.50;;;9.05;;
23336;SDS011;11840;45.414;12.372;2022-07-21T07:17:39;11.55;;;10.05;;
23336;SDS011;11840;45.414;12.372;2022-07-21T07:20:05;16.20;;;10.40;;
23336;SDS011;11840;45.414;12.372;2022-07-21T07:22:32;14.40;;;10.68;;
23336;SDS011;11840;45.414;12.372;2022-07-21T07:24:58;12.57;;;10.35;;
23336;SDS011;11840;45.414;12.372;2022-07-21T07:27:24;10.38;;;8.68;;
23336;SDS011;11840;45.414;12.372;2022-07-21T07:29:50;10.18;;;7.72;;
23336;SDS011;11840;45.414;12.372;2022-07-21T07:32:16;14.43;;;8.15;;
23336;SDS011;11840;45.414;12.372;2022-07-21T07:34:43;10.77;;;8.00;;
23336;SDS011;11840;45.414;12.372;2022-07-21T07:37:09;11.82;;;8.27;;
23336;SDS011;11840;45.414;12.372;2022-07-21T07:39:35;11.60;;;8.23;;
23336;SDS011;11840;45.414;12.372;2022-07-21T07:42:03;14.05;;;8.68;;
23336;SDS011;11840;45.414;12.372;2022-07-21T07:44:29;16.10;;;8.18;;
23336;SDS011;11840;45.414;12.372;2022-07-21T07:46:55;15.77;;;8.55;;
23336;SDS011;11840;45.414;12.372;2022-07-21T07:49:21;12.30;;;7.55;;
23336;SDS011;11840;45.414;12.372;2022-07-21T07:51:47;11.98;;;7.47;;
23336;SDS011;11840;45.414;12.372;2022-07-21T07:54:14;16.35;;;7.85;;
23336;SDS011;11840;45.414;12.372;2022-07-21T07:56:40;9.38;;;6.28;;
23336;SDS011;11840;45.414;12.372;2022-07-21T07:59:07;11.90;;;6.60;;
23336;SDS011;11840;45.414;12.372;2022-07-21T08:01:34;10.65;;;6.80;;
23336;SDS011;11840;45.414;12.372;2022-07-21T08:04:00;9.20;;;6.93;;
23336;SDS011;11840;45.414;12.372;2022-07-21T08:06:27;11.45;;;6.38;;
23336;SDS011;11840;45.414;12.372;2022-07-21T08:08:52;8.45;;;5.97;;
23336;SDS011;11840;45.414;12.372;2022-07-21T08:11:19;10.77;;;5.85;;
23336;SDS011;11840;45.414;12.372;2022-07-21T08:13:44;7.18;;;4.93;;
23336;SDS011;11840;45.414;12.372;2022-07-21T08:16:10;10.02;;;4.82;;
23336;SDS011;11840;45.414;12.372;2022-07-21T08:18:38;7.28;;;4.68;;
23336;SDS011;11840;45.414;12.372;2022-07-21T08:21:04;13.15;;;5.05;;
23336;SDS011;11840;45.414;12.372;2022-07-21T08:23:30;8.35;;;5.60;;
23336;SDS011;11840;45.414;12.372;2022-07-21T08:25:56;10.23;;;5.80;;
23336;SDS011;11840;45.414;12.372;2022-07-21T08:28:22;9.75;;;4.72;;
23336;SDS011;11840;45.414;12.372;2022-07-21T08:30:49;6.18;;;4.53;;
23336;SDS011;11840;45.414;12.372;2022-07-21T08:33:14;6.55;;;4.47;;
23336;SDS011;11840;45.414;12.372;2022-07-21T08:35:40;9.82;;;5.10;;
23336;SDS011;11840;45.414;12.372;2022-07-21T08:38:07;6.93;;;4.70;;
23336;SDS011;11840;45.414;12.372;2022-07-21T08:40:34;10.98;;;4.35;;
23336;SDS011;11840;45.414;12.372;2022-07-21T08:43:00;8.48;;;4.18;;
23336;SDS011;11840;45.414;12.372;2022-07-21T08:45:26;6.97;;;3.92;;
23336;SDS011;11840;45.414;12.372;2022-07-21T08:47:54;9.68;;;3.92;;
23336;SDS011;11840;45.414;12.372;2022-07-21T08:50:23;10.52;;;4.25;;
23336;SDS011;11840;45.414;12.372;2022-07-21T08:52:50;6.57;;;4.07;;
23336;SDS011;11840;45.414;12.372;2022-07-21T08:55:16;7.82;;;3.90;;
23336;SDS011;11840;45.414;12.372;2022-07-21T08:57:42;10.65;;;7.65;;
23336;SDS011;11840;45.414;12.372;2022-07-21T09:00:09;14.00;;;6.90;;
23336;SDS011;11840;45.414;12.372;2022-07-21T09:02:35;10.95;;;6.00;;
23336;SDS011;11840;45.414;12.372;2022-07-21T09:05:04;13.23;;;7.88;;
23336;SDS011;11840;45.414;12.372;2022-07-21T09:07:50;14.23;;;7.78;;
23336;SDS011;11840;45.414;12.372;2022-07-21T09:10:20;9.63;;;7.75;;
23336;SDS011;11840;45.414;12.372;2022-07-21T09:12:50;10.93;;;7.90;;
23336;SDS011;11840;45.414;12.372;2022-07-21T09:15:17;15.40;;;7.80;;
23336;SDS011;11840;45.414;12.372;2022-07-21T09:17:44;10.75;;;8.15;;
23336;SDS011;11840;45.414;12.372;2022-07-21T09:20:23;13.52;;;7.53;;
23336;SDS011;11840;45.414;12.372;2022-07-21T09:25:41;10.55;;;7.00;;
23336;SDS011;11840;45.414;12.372;2022-07-21T09:30:58;8.85;;;6.45;;
23336;SDS011;11840;45.414;12.372;2022-07-21T09:33:31;11.32;;;6.40;;
23336;SDS011;11840;45.414;12.372;2022-07-21T09:38:24;9.93;;;6.10;;
23336;SDS011;11840;45.414;12.372;2022-07-21T09:40:50;9.40;;;5.75;;
23336;SDS011;11840;45.414;12.372;2022-07-21T09:43:29;12.10;;;5.65;;
23336;SDS011;11840;45.414;12.372;2022-07-21T09:45:55;14.50;;;6.03;;
23336;SDS011;11840;45.414;12.372;2022-07-21T09:50:56;7.38;;;6.10;;
23336;SDS011;11840;45.414;12.372;2022-07-21T09:53:26;9.60;;;6.22;;
23336;SDS011;11840;45.414;12.372;2022-07-21T09:55:52;8.70;;;6.38;;
23336;SDS011;11840;45.414;12.372;2022-07-21T09:58:18;10.52;;;6.43;;
23336;SDS011;11840;45.414;12.372;2022-07-21T10:00:45;10.30;;;7.18;;
23336;SDS011;11840;45.414;12.372;2022-07-21T10:03:11;12.85;;;6.57;;
23336;SDS011;11840;45.414;12.372;2022-07-21T10:05:36;7.70;;;6.78;;
23336;SDS011;11840;45.414;12.372;2022-07-21T10:08:03;10.65;;;7.55;;
23336;SDS011;11840;45.414;12.372;2022-07-21T10:10:29;11.65;;;7.63;;
23336;SDS011;11840;45.414;12.372;2022-07-21T10:12:55;13.52;;;8.05;;
23336;SDS011;11840;45.414;12.372;2022-07-21T10:15:21;11.07;;;8.85;;
23336;SDS011;11840;45.414;12.372;2022-07-21T10:17:47;15.00;;;9.13;;
23336;SDS011;11840;45.414;12.372;2022-07-21T10:20:27;11.07;;;8.55;;
23336;SDS011;11840;45.414;12.372;2022-07-21T10:25:21;9.85;;;8.85;;
23336;SDS011;11840;45.414;12.372;2022-07-21T10:30:39;9.40;;;8.05;;
23336;SDS011;11840;45.414;12.372;2022-07-21T10:33:06;11.68;;;8.13;;
23336;SDS011;11840;45.414;12.372;2022-07-21T10:35:32;10.07;;;7.72;;
23336;SDS011;11840;45.414;12.372;2022-07-21T10:38:02;13.48;;;8.20;;
23336;SDS011;11840;45.414;12.372;2022-07-21T10:45:35;10.93;;;8.48;;
23336;SDS011;11840;45.414;12.372;2022-07-21T10:48:04;10.80;;;8.68;;
23336;SDS011;11840;45.414;12.372;2022-07-21T10:50:31;10.18;;;8.80;;
23336;SDS011;11840;45.414;12.372;2022-07-21T10:53:01;13.00;;;8.68;;
23336;SDS011;11840;45.414;12.372;2022-07-21T10:55:29;11.40;;;8.25;;
23336;SDS011;11840;45.414;12.372;2022-07-21T10:58:12;10.25;;;8.20;;
23336;SDS011;11840;45.414;12.372;2022-07-21T11:00:43;9.45;;;7.97;;
23336;SDS011;11840;45.414;12.372;2022-07-21T11:03:13;12.18;;;8.07;;
23336;SDS011;11840;45.414;12.372;2022-07-21T11:08:36;12.73;;;7.95;;
23336;SDS011;11840;45.414;12.372;2022-07-21T11:11:12;10.48;;;8.18;;
23336;SDS011;11840;45.414;12.372;2022-07-21T11:13:57;9.15;;;8.13;;
23336;SDS011;11840;45.414;12.372;2022-07-21T11:16:39;9.75;;;8.48;;
23336;SDS011;11840;45.414;12.372;2022-07-21T11:21:53;10.98;;;8.77;;
23336;SDS011;11840;45.414;12.372;2022-07-21T11:24:20;9.82;;;8.82;;
23336;SDS011;11840;45.414;12.372;2022-07-21T11:27:00;9.70;;;8.70;;
23336;SDS011;11840;45.414;12.372;2022-07-21T11:29:26;9.98;;;8.82;;
23336;SDS011;11840;45.414;12.372;2022-07-21T11:31:53;17.20;;;10.05;;
23336;SDS011;11840;45.414;12.372;2022-07-21T11:34:19;13.82;;;10.35;;
23336;SDS011;11840;45.414;12.372;2022-07-21T11:36:44;12.30;;;10.50;;
23336;SDS011;11840;45.414;12.372;2022-07-21T11:39:12;15.20;;;13.68;;
23336;SDS011;11840;45.414;12.372;2022-07-21T11:41:38;16.90;;;15.13;;
23336;SDS011;11840;45.414;12.372;2022-07-21T11:44:06;16.63;;;15.00;;
23336;SDS011;11840;45.414;12.372;2022-07-21T11:46:47;19.75;;;17.55;;
23336;SDS011;11840;45.414;12.372;2022-07-21T11:49:13;18.77;;;16.95;;
23336;SDS011;11840;45.414;12.372;2022-07-21T11:51:45;21.90;;;18.90;;
23336;SDS011;11840;45.414;12.372;2022-07-21T11:56:50;19.92;;;18.02;;
23336;SDS011;11840;45.414;12.372;2022-07-21T11:59:16;19.00;;;17.10;;
23336;SDS011;11840;45.414;12.372;2022-07-21T12:01:52;17.58;;;15.80;;
23336;SDS011;11840;45.414;12.372;2022-07-21T12:04:34;19.40;;;16.30;;
23336;SDS011;11840;45.414;12.372;2022-07-21T12:07:00;16.45;;;14.80;;
23336;SDS011;11840;45.414;12.372;2022-07-21T12:09:27;16.92;;;14.48;;
23336;SDS011;11840;45.414;12.372;2022-07-21T12:11:53;19.95;;;15.27;;
23336;SDS011;11840;45.414;12.372;2022-07-21T12:14:19;17.02;;;15.45;;
23336;SDS011;11840;45.414;12.372;2022-07-21T12:16:53;16.85;;;15.23;;
23336;SDS011;11840;45.414;12.372;2022-07-21T12:19:19;17.05;;;15.30;;
23336;SDS011;11840;45.414;12.372;2022-07-21T12:21:50;17.83;;;15.90;;
23336;SDS011;11840;45.414;12.372;2022-07-21T12:24:16;15.50;;;14.00;;
23336;SDS011;11840;45.414;12.372;2022-07-21T12:26:42;15.45;;;13.82;;
23336;SDS011;11840;45.414;12.372;2022-07-21T12:29:09;14.73;;;13.20;;
23336;SDS011;11840;45.414;12.372;2022-07-21T12:31:35;14.70;;;13.30;;
23336;SDS011;11840;45.414;12.372;2022-07-21T12:34:12;15.60;;;13.82;;
23336;SDS011;11840;45.414;12.372;2022-07-21T12:36:37;15.68;;;14.07;;
23336;SDS011;11840;45.414;12.372;2022-07-21T12:39:13;16.17;;;14.48;;
23336;SDS011;11840;45.414;12.372;2022-07-21T12:41:45;18.98;;;14.80;;
23336;SDS011;11840;45.414;12.372;2022-07-21T12:44:11;16.42;;;14.52;;
23336;SDS011;11840;45.414;12.372;2022-07-21T12:46:37;19.95;;;15.98;;
23336;SDS011;11840;45.414;12.372;2022-07-21T12:49:06;16.27;;;14.70;;
23336;SDS011;11840;45.414;12.372;2022-07-21T12:51:32;16.98;;;14.48;;
23336;SDS011;11840;45.414;12.372;2022-07-21T12:53:58;16.38;;;13.52;;
23336;SDS011;11840;45.414;12.372;2022-07-21T12:56:25;15.27;;;12.48;;
23336;SDS011;11840;45.414;12.372;2022-07-21T12:58:51;13.93;;;11.50;;
23336;SDS011;11840;45.414;12.372;2022-07-21T13:01:18;15.55;;;9.95;;
23336;SDS011;11840;45.414;12.372;2022-07-21T13:03:44;12.90;;;9.18;;
23336;SDS011;11840;45.414;12.372;2022-07-21T13:06:10;10.32;;;7.43;;
23336;SDS011;11840;45.414;12.372;2022-07-21T13:08:37;9.40;;;7.45;;
23336;SDS011;11840;45.414;12.372;2022-07-21T13:11:03;9.00;;;6.50;;
23336;SDS011;11840;45.414;12.372;2022-07-21T13:13:30;11.95;;;6.18;;
23336;SDS011;11840;45.414;12.372;2022-07-21T13:15:56;8.02;;;6.18;;
23336;SDS011;11840;45.414;12.372;2022-07-21T13:18:21;8.40;;;5.47;;
23336;SDS011;11840;45.414;12.372;2022-07-21T13:20:48;6.40;;;5.60;;
23336;SDS011;11840;45.414;12.372;2022-07-21T13:23:14;6.00;;;5.03;;
23336;SDS011;11840;45.414;12.372;2022-07-21T13:25:40;7.05;;;5.35;;
23336;SDS011;11840;45.414;12.372;2022-07-21T13:28:06;7.43;;;5.22;;
23336;SDS011;11840;45.414;12.372;2022-07-21T13:30:32;6.78;;;5.40;;
23336;SDS011;11840;45.414;12.372;2022-07-21T13:32:59;6.50;;;4.60;;
23336;SDS011;11840;45.414;12.372;2022-07-21T13:35:25;7.93;;;4.97;;
23336;SDS011;11840;45.414;12.372;2022-07-21T13:37:52;6.93;;;5.22;;
23336;SDS011;11840;45.414;12.372;2022-07-21T13:40:18;10.50;;;6.18;;
23336;SDS011;11840;45.414;12.372;2022-07-21T13:42:44;6.90;;;5.32;;
23336;SDS011;11840;45.414;12.372;2022-07-21T13:45:10;11.43;;;6.00;;
23336;SDS011;11840;45.414;12.372;2022-07-21T13:47:37;7.47;;;5.45;;
23336;SDS011;11840;45.414;12.372;2022-07-21T13:50:03;8.68;;;5.80;;
23336;SDS011;11840;45.414;12.372;2022-07-21T13:52:31;7.90;;;6.40;;
23336;SDS011;11840;45.414;12.372;2022-07-21T13:54:57;8.38;;;6.05;;
23336;SDS011;11840;45.414;12.372;2022-07-21T13:57:23;7.40;;;4.35;;
23336;SDS011;11840;45.414;12.372;2022-07-21T13:59:50;5.53;;;4.43;;
23336;SDS011;11840;45.414;12.372;2022-07-21T14:02:16;8.55;;;5.20;;
23336;SDS011;11840;45.414;12.372;2022-07-21T14:04:42;7.63;;;5.50;;
23336;SDS011;11840;45.414;12.372;2022-07-21T14:07:08;6.85;;;6.00;;
23336;SDS011;11840;45.414;12.372;2022-07-21T14:09:33;6.22;;;5.63;;
23336;SDS011;11840;45.414;12.372;2022-07-21T14:12:00;5.57;;;3.85;;
23336;SDS011;11840;45.414;12.372;2022-07-21T14:14:25;6.53;;;4.10;;
23336;SDS011;11840;45.414;12.372;2022-07-21T14:16:52;5.90;;;4.95;;
23336;SDS011;11840;45.414;12.372;2022-07-21T14:19:22;6.43;;;4.93;;
23336;SDS011;11840;45.414;12.372;2022-07-21T14:21:47;7.95;;;5.13;;
23336;SDS011;11840;45.414;12.372;2022-07-21T14:24:13;8.07;;;5.90;;
23336;SDS011;11840;45.414;12.372;2022-07-21T14:26:58;8.10;;;6.18;;
23336;SDS011;11840;45.414;12.372;2022-07-21T14:29:23;7.97;;;6.40;;
23336;SDS011;11840;45.414;12.372;2022-07-21T14:31:50;8.98;;;6.75;;
23336;SDS011;11840;45.414;12.372;2022-07-21T14:34:16;7.75;;;6.32;;
23336;SDS011;11840;45.414;12.372;2022-07-21T14:36:42;10.02;;;5.35;;
23336;SDS011;11840;45.414;12.372;2022-07-21T14:39:08;7.43;;;4.35;;
23336;SDS011;11840;45.414;12.372;2022-07-21T14:41:34;8.80;;;4.88;;
23336;SDS011;11840;45.414;12.372;2022-07-21T14:44:00;8.32;;;5.40;;
23336;SDS011;11840;45.414;12.372;2022-07-21T14:46:25;8.77;;;5.13;;
23336;SDS011;11840;45.414;12.372;2022-07-21T14:48:51;7.50;;;5.10;;
23336;SDS011;11840;45.414;12.372;2022-07-21T14:51:18;7.30;;;5.20;;
23336;SDS011;11840;45.414;12.372;2022-07-21T14:53:44;6.68;;;4.45;;
23336;SDS011;11840;45.414;12.372;2022-07-21T14:56:10;7.03;;;4.80;;
23336;SDS011;11840;45.414;12.372;2022-07-21T14:58:36;10.65;;;5.57;;
23336;SDS011;11840;45.414;12.372;2022-07-21T15:01:02;11.80;;;5.97;;
23336;SDS011;11840;45.414;12.372;2022-07-21T15:03:28;7.90;;;6.60;;
23336;SDS011;11840;45.414;12.372;2022-07-21T15:05:55;8.25;;;6.50;;
23336;SDS011;11840;45.414;12.372;2022-07-21T15:08:20;7.40;;;6.05;;
23336;SDS011;11840;45.414;12.372;2022-07-21T15:10:49;18.05;;;6.97;;
23336;SDS011;11840;45.414;12.372;2022-07-21T15:13:15;11.38;;;7.70;;
23336;SDS011;11840;45.414;12.372;2022-07-21T15:15:41;10.40;;;6.75;;
23336;SDS011;11840;45.414;12.372;2022-07-21T15:18:09;8.60;;;7.55;;
23336;SDS011;11840;45.414;12.372;2022-07-21T15:20:35;9.75;;;6.57;;
23336;SDS011;11840;45.414;12.372;2022-07-21T15:23:02;7.93;;;6.65;;
23336;SDS011;11840;45.414;12.372;2022-07-21T15:25:28;9.55;;;7.13;;
23336;SDS011;11840;45.414;12.372;2022-07-21T15:27:55;9.50;;;7.40;;
23336;SDS011;11840;45.414;12.372;2022-07-21T15:30:21;7.82;;;7.03;;
23336;SDS011;11840;45.414;12.372;2022-07-21T15:32:47;8.48;;;7.60;;
23336;SDS011;11840;45.414;12.372;2022-07-21T15:35:13;8.95;;;7.55;;
23336;SDS011;11840;45.414;12.372;2022-07-21T15:37:39;10.48;;;6.70;;
23336;SDS011;11840;45.414;12.372;2022-07-21T15:40:05;8.07;;;6.15;;
23336;SDS011;11840;45.414;12.372;2022-07-21T15:42:31;8.75;;;6.00;;
23336;SDS011;11840;45.414;12.372;2022-07-21T15:44:59;8.45;;;6.38;;
23336;SDS011;11840;45.414;12.372;2022-07-21T15:47:25;8.85;;;6.63;;
23336;SDS011;11840;45.414;12.372;2022-07-21T15:49:52;9.68;;;6.03;;
23336;SDS011;11840;45.414;12.372;2022-07-21T15:52:18;8.85;;;6.72;;
23336;SDS011;11840;45.414;12.372;2022-07-21T15:54:44;7.07;;;6.03;;
23336;SDS011;11840;45.414;12.372;2022-07-21T15:57:10;7.68;;;6.00;;
23336;SDS011;11840;45.414;12.372;2022-07-21T15:59:36;8.30;;;6.22;;
23336;SDS011;11840;45.414;12.372;2022-07-21T16:02:06;10.82;;;6.50;;
23336;SDS011;11840;45.414;12.372;2022-07-21T16:04:33;11.30;;;6.57;;
23336;SDS011;11840;45.414;12.372;2022-07-21T16:06:59;7.55;;;6.03;;
23336;SDS011;11840;45.414;12.372;2022-07-21T16:09:25;8.38;;;6.28;;
23336;SDS011;11840;45.414;12.372;2022-07-21T16:11:51;8.65;;;5.57;;
23336;SDS011;11840;45.414;12.372;2022-07-21T16:14:17;11.55;;;6.13;;
23336;SDS011;11840;45.414;12.372;2022-07-21T16:16:43;5.88;;;5.25;;
23336;SDS011;11840;45.414;12.372;2022-07-21T16:19:09;9.73;;;4.43;;
23336;SDS011;11840;45.414;12.372;2022-07-21T16:21:35;9.60;;;4.70;;
23336;SDS011;11840;45.414;12.372;2022-07-21T16:24:01;10.45;;;5.30;;
23336;SDS011;11840;45.414;12.372;2022-07-21T16:26:27;6.03;;;4.70;;
23336;SDS011;11840;45.414;12.372;2022-07-21T16:28:54;9.30;;;4.40;;
23336;SDS011;11840;45.414;12.372;2022-07-21T16:31:19;8.02;;;4.50;;
23336;SDS011;11840;45.414;12.372;2022-07-21T16:33:47;7.18;;;4.15;;
23336;SDS011;11840;45.414;12.372;2022-07-21T16:36:13;7.85;;;5.00;;
23336;SDS011;11840;45.414;12.372;2022-07-21T16:38:39;9.30;;;5.40;;
23336;SDS011;11840;45.414;12.372;2022-07-21T16:41:05;7.68;;;5.57;;
23336;SDS011;11840;45.414;12.372;2022-07-21T16:43:31;9.38;;;5.70;;
23336;SDS011;11840;45.414;12.372;2022-07-21T16:45:57;8.52;;;6.20;;
23336;SDS011;11840;45.414;12.372;2022-07-21T16:48:23;8.65;;;6.25;;
23336;SDS011;11840;45.414;12.372;2022-07-21T16:50:49;8.18;;;6.22;;
23336;SDS011;11840;45.414;12.372;2022-07-21T16:53:15;9.90;;;5.80;;
23336;SDS011;11840;45.414;12.372;2022-07-21T16:55:41;7.22;;;6.05;;
23336;SDS011;11840;45.414;12.372;2022-07-21T16:58:07;8.80;;;6.30;;
23336;SDS011;11840;45.414;12.372;2022-07-21T17:00:32;9.90;;;6.43;;
23336;SDS011;11840;45.414;12.372;2022-07-21T17:02:59;10.10;;;6.63;;
23336;SDS011;11840;45.414;12.372;2022-07-21T17:05:25;9.55;;;7.20;;
23336;SDS011;11840;45.414;12.372;2022-07-21T17:07:51;10.25;;;7.93;;
23336;SDS011;11840;45.414;12.372;2022-07-21T17:10:17;9.55;;;8.10;;
23336;SDS011;11840;45.414;12.372;2022-07-21T17:12:44;10.63;;;8.25;;
23336;SDS011;11840;45.414;12.372;2022-07-21T17:15:10;13.75;;;10.60;;
23336;SDS011;11840;45.414;12.372;2022-07-21T17:17:36;15.35;;;10.85;;
23336;SDS011;11840;45.414;12.372;2022-07-21T17:20:03;15.20;;;11.27;;
23336;SDS011;11840;45.414;12.372;2022-07-21T17:22:28;15.90;;;13.18;;
23336;SDS011;11840;45.414;12.372;2022-07-21T17:24:55;16.27;;;14.68;;
23336;SDS011;11840;45.414;12.372;2022-07-21T17:27:21;17.67;;;15.85;;
23336;SDS011;11840;45.414;12.372;2022-07-21T17:29:47;19.73;;;17.45;;
23336;SDS011;11840;45.414;12.372;2022-07-21T17:32:13;21.67;;;19.58;;
23336;SDS011;11840;45.414;12.372;2022-07-21T17:34:39;21.83;;;19.55;;
23336;SDS011;11840;45.414;12.372;2022-07-21T17:37:06;24.90;;;18.90;;
23336;SDS011;11840;45.414;12.372;2022-07-21T17:39:32;20.95;;;18.45;;
23336;SDS011;11840;45.414;12.372;2022-07-21T17:41:58;21.13;;;18.90;;
23336;SDS011;11840;45.414;12.372;2022-07-21T17:44:24;19.05;;;16.67;;
23336;SDS011;11840;45.414;12.372;2022-07-21T17:46:50;15.00;;;13.50;;
23336;SDS011;11840;45.414;12.372;2022-07-21T17:49:16;15.85;;;14.13;;
23336;SDS011;11840;45.414;12.372;2022-07-21T17:51:42;14.98;;;13.48;;
23336;SDS011;11840;45.414;12.372;2022-07-21T17:54:08;14.10;;;11.70;;
23336;SDS011;11840;45.414;12.372;2022-07-21T17:56:35;13.38;;;11.57;;
23336;SDS011;11840;45.414;12.372;2022-07-21T17:59:00;13.38;;;12.07;;
23336;SDS011;11840;45.414;12.372;2022-07-21T18:01:26;15.02;;;11.68;;
23336;SDS011;11840;45.414;12.372;2022-07-21T18:03:52;15.85;;;11.73;;
23336;SDS011;11840;45.414;12.372;2022-07-21T18:06:18;14.10;;;10.60;;
23336;SDS011;11840;45.414;12.372;2022-07-21T18:08:45;11.57;;;9.27;;
23336;SDS011;11840;45.414;12.372;2022-07-21T18:11:11;11.65;;;9.50;;
23336;SDS011;11840;45.414;12.372;2022-07-21T18:13:38;10.43;;;9.43;;
23336;SDS011;11840;45.414;12.372;2022-07-21T18:16:04;10.65;;;9.02;;
23336;SDS011;11840;45.414;12.372;2022-07-21T18:18:31;9.82;;;8.23;;
23336;SDS011;11840;45.414;12.372;2022-07-21T18:20:57;9.10;;;7.97;;
23336;SDS011;11840;45.414;12.372;2022-07-21T18:23:23;8.63;;;7.63;;
23336;SDS011;11840;45.414;12.372;2022-07-21T18:25:48;8.32;;;7.00;;
23336;SDS011;11840;45.414;12.372;2022-07-21T18:28:14;9.68;;;6.38;;
23336;SDS011;11840;45.414;12.372;2022-07-21T18:30:41;8.90;;;6.80;;
23336;SDS011;11840;45.414;12.372;2022-07-21T18:33:07;11.13;;;6.93;;
23336;SDS011;11840;45.414;12.372;2022-07-21T18:35:33;16.70;;;7.00;;
23336;SDS011;11840;45.414;12.372;2022-07-21T18:37:59;6.38;;;5.68;;
23336;SDS011;11840;45.414;12.372;2022-07-21T18:40:25;8.57;;;6.53;;
23336;SDS011;11840;45.414;12.372;2022-07-21T18:42:51;8.68;;;5.80;;
23336;SDS011;11840;45.414;12.372;2022-07-21T18:45:17;7.20;;;5.82;;
23336;SDS011;11840;45.414;12.372;2022-07-21T18:47:43;7.00;;;5.95;;
23336;SDS011;11840;45.414;12.372;2022-07-21T18:50:09;8.85;;;5.45;;
23336;SDS011;11840;45.414;12.372;2022-07-21T18:52:38;7.50;;;5.18;;
23336;SDS011;11840;45.414;12.372;2022-07-21T18:55:05;6.03;;;5.03;;
23336;SDS011;11840;45.414;12.372;2022-07-21T18:57:32;7.85;;;4.90;;
23336;SDS011;11840;45.414;12.372;2022-07-21T18:59:58;7.57;;;4.47;;
23336;SDS011;11840;45.414;12.372;2022-07-21T19:02:26;8.50;;;5.10;;
23336;SDS011;11840;45.414;12.372;2022-07-21T19:04:52;6.47;;;5.15;;
23336;SDS011;11840;45.414;12.372;2022-07-21T19:07:18;5.38;;;4.57;;
23336;SDS011;11840;45.414;12.372;2022-07-21T19:09:44;8.90;;;4.90;;
23336;SDS011;11840;45.414;12.372;2022-07-21T19:12:10;7.18;;;4.50;;
23336;SDS011;11840;45.414;12.372;2022-07-21T19:14:41;7.28;;;5.03;;
23336;SDS011;11840;45.414;12.372;2022-07-21T19:17:07;6.00;;;4.60;;
23336;SDS011;11840;45.414;12.372;2022-07-21T19:19:33;7.30;;;4.63;;
23336;SDS011;11840;45.414;12.372;2022-07-21T19:21:59;4.95;;;4.45;;
23336;SDS011;11840;45.414;12.372;2022-07-21T19:24:26;9.48;;;5.13;;
23336;SDS011;11840;45.414;12.372;2022-07-21T19:26:52;7.72;;;5.07;;
23336;SDS011;11840;45.414;12.372;2022-07-21T19:29:18;8.93;;;4.93;;
23336;SDS011;11840;45.414;12.372;2022-07-21T19:31:43;6.32;;;4.75;;
23336;SDS011;11840;45.414;12.372;2022-07-21T19:34:10;6.07;;;4.93;;
23336;SDS011;11840;45.414;12.372;2022-07-21T19:36:36;6.40;;;4.22;;
23336;SDS011;11840;45.414;12.372;2022-07-21T19:39:03;6.40;;;4.60;;
23336;SDS011;11840;45.414;12.372;2022-07-21T19:41:29;7.80;;;4.68;;
23336;SDS011;11840;45.414;12.372;2022-07-21T19:43:56;5.57;;;4.35;;